sensor_id;sensor_type;location;lat;lon;timestamp;pressure;altitude;pressure_sealevel;temperature;humidity
23574;BME280;11965;53.640;10.050;2023-04-01T00:01:57;99363.97;;;9.31;100.00
23574;BME280;11965;53.640;10.050;2023-04-01T00:04:24;99358.44;;;9.31;100.00
23574;BME280;11965;53.640;10.050;2023-04-01T00:06:51;99365.03;;;9.29;100.00
23574;BME280;11965;53.640;10.050;2023-04-01T00:09:18;99366.72;;;9.31;100.00
23574;BME280;11965;53.640;10.050;2023-04-01T00:11:45;99362.28;;;9.29;100.00
23574;BME280;11965;53.640;10.050;2023-04-01T00:14:12;99361.63;;;9.27;100.00
23574;BME280;11965;53.640;10.050;2023-04-01T00:16:39;99361.41;;;9.29;100.00
23574;BME280;11965;53.640;10.050;2023-04-01T00:19:07;99362.88;;;9.32;100.00
23574;BME280;11965;53.640;10.050;2023-04-01T00:21:34;99370.78;;;9.28;100.00
23574;BME280;11965;53.640;10.050;2023-04-01T00:24:02;99370.97;;;9.26;100.00
23574;BME280;11965;53.640;10.050;2023-04-01T00:26:29;99366.94;;;9.29;100.00
23574;BME280;11965;53.640;10.050;2023-04-01T00:28:56;99368.00;;;9.28;100.00
23574;BME280;11965;53.640;10.050;2023-04-01T00:31:22;99363.78;;;9.25;100.00
23574;BME280;11965;53.640;10.050;2023-04-01T00:33:51;99367.16;;;9.27;100.00
23574;BME280;11965;53.640;10.050;2023-04-01T00:36:21;99370.97;;;9.26;100.00
23574;BME280;11965;53.640;10.050;2023-04-01T00:38:49;99373.16;;;9.24;100.00
23574;BME280;11965;53.640;10.050;2023-04-01T00:41:18;99359.75;;;9.21;100.00
23574;BME280;11965;53.640;10.050;2023-04-01T00:43:50;99371.22;;;9.25;100.00
23574;BME280;11965;53.640;10.050;2023-04-01T00:46:20;99368.47;;;9.25;100.00
23574;BME280;11965;53.640;10.050;2023-04-01T00:48:51;99361.00;;;9.25;100.00
23574;BME280;11965;53.640;10.050;2023-04-01T00:51:25;99367.00;;;9.22;100.00
23574;BME280;11965;53.640;10.050;2023-04-01T00:53:55;99367.63;;;9.24;100.00
23574;BME280;11965;53.640;10.050;2023-04-01T00:56:26;99365.06;;;9.23;100.00
23574;BME280;11965;53.640;10.050;2023-04-01T00:58:58;99369.97;;;9.21;100.00
23574;BME280;11965;53.640;10.050;2023-04-01T01:01:29;99367.00;;;9.22;100.00
23574;BME280;11965;53.640;10.050;2023-04-01T01:03:56;99377.19;;;9.22;100.00
23574;BME280;11965;53.640;10.050;2023-04-01T01:06:38;99372.97;;;9.19;100.00
23574;BME280;11965;53.640;10.050;2023-04-01T01:09:21;99371.25;;;9.18;100.00
23574;BME280;11965;53.640;10.050;2023-04-01T01:11:59;99374.00;;;9.18;100.00
23574;BME280;11965;53.640;10.050;2023-04-01T01:14:40;99371.25;;;9.18;100.00
23574;BME280;11965;53.640;10.050;2023-04-01T01:17:17;99371.69;;;9.15;100.00
23574;BME280;11965;53.640;10.050;2023-04-01T01:20:15;99373.22;;;9.11;100.00
23574;BME280;11965;53.640;10.050;2023-04-01T01:25:52;99377.50;;;9.07;100.00
23574;BME280;11965;53.640;10.050;2023-04-01T01:28:36;99366.03;;;9.03;100.00
23574;BME280;11965;53.640;10.050;2023-04-01T01:31:17;99382.16;;;9.06;100.00
23574;BME280;11965;53.640;10.050;2023-04-01T01:34:05;99386.03;;;9.05;100.00
23574;BME280;11965;53.640;10.050;2023-04-01T01:36:38;99379.63;;;9.05;100.00
23574;BME280;11965;53.640;10.050;2023-04-01T01:39:09;99376.25;;;9.03;100.00
23574;BME280;11965;53.640;10.050;2023-04-01T01:41:41;99386.22;;;9.04;100.00
23574;BME280;11965;53.640;10.050;2023-04-01T01:44:12;99383.66;;;9.02;100.00
23574;BME280;11965;53.640;10.050;2023-04-01T01:46:42;99386.66;;;9.01;100.00
23574;BME280;11965;53.640;10.050;2023-04-01T01:49:13;99390.28;;;9.01;100.00
23574;BME280;11965;53.640;10.050;2023-04-01T01:51:42;99392.84;;;9.03;100.00
23574;BME280;11965;53.640;10.050;2023-04-01T01:54:12;99384.53;;;9.03;100.00
23574;BME280;11965;53.640;10.050;2023-04-01T01:56:43;99391.13;;;9.02;100.00
23574;BME280;11965;53.640;10.050;2023-04-01T01:59:15;99386.88;;;8.99;100.00
23574;BME280;11965;53.640;10.050;2023-04-01T02:01:48;99383.06;;;9.00;100.00
23574;BME280;11965;53.640;10.050;2023-04-01T02:04:19;99384.94;;;9.00;100.00
23574;BME280;11965;53.640;10.050;2023-04-01T02:06:55;99393.25;;;9.00;100.00
23574;BME280;11965;53.640;10.050;2023-04-01T02:09:23;99390.28;;;9.01;100.00
23574;BME280;11965;53.640;10.050;2023-04-01T02:11:53;99394.97;;;9.01;100.00
23574;BME280;11965;53.640;10.050;2023-04-01T02:14:26;99398.78;;;9.00;100.00
23574;BME280;11965;53.640;10.050;2023-04-01T02:16:58;99395.81;;;9.01;100.00
23574;BME280;11965;53.640;10.050;2023-04-01T02:19:32;99402.16;;;9.02;100.00
23574;BME280;11965;53.640;10.050;2023-04-01T02:22:04;99394.97;;;9.01;100.00
23574;BME280;11965;53.640;10.050;2023-04-01T02:24:35;99392.84;;;9.03;100.00
23574;BME280;11965;53.640;10.050;2023-04-01T02:27:04;99394.97;;;9.01;100.00
23574;BME280;11965;53.640;10.050;2023-04-01T02:29:32;99392.41;;;8.99;100.00
23574;BME280;11965;53.640;10.050;2023-04-01T02:32:00;99399.84;;;8.99;100.00
23574;BME280;11965;53.640;10.050;2023-04-01T02:34:27;99406.22;;;8.99;100.00
23574;BME280;11965;53.640;10.050;2023-04-01T02:36:55;99397.31;;;8.97;100.00
23574;BME280;11965;53.640;10.050;2023-04-01T02:39:24;99403.06;;;8.96;100.00
23574;BME280;11965;53.640;10.050;2023-04-01T02:41:52;99399.66;;;8.94;100.00
23574;BME280;11965;53.640;10.050;2023-04-01T02:44:19;99400.50;;;8.94;100.00
23574;BME280;11965;53.640;10.050;2023-04-01T02:46:46;99407.50;;;8.97;100.00
23574;BME280;11965;53.640;10.050;2023-04-01T02:49:13;99399.66;;;8.94;100.00
23574;BME280;11965;53.640;10.050;2023-04-01T02:51:40;99406.91;;;8.95;100.00
23574;BME280;11965;53.640;10.050;2023-04-01T02:54:07;99407.94;;;8.94;100.00
23574;BME280;11965;53.640;10.050;2023-04-01T02:56:35;99419.44;;;8.91;100.00
23574;BME280;11965;53.640;10.050;2023-04-01T02:59:02;99406.72;;;8.90;100.00
23574;BME280;11965;53.640;10.050;2023-04-01T03:01:29;99414.75;;;8.91;100.00
23574;BME280;11965;53.640;10.050;2023-04-01T03:03:56;99414.75;;;8.91;100.00
23574;BME280;11965;53.640;10.050;2023-04-01T03:06:23;99425.59;;;8.93;100.00
23574;BME280;11965;53.640;10.050;2023-04-01T03:08:50;99423.03;;;8.91;100.00
23574;BME280;11965;53.640;10.050;2023-04-01T03:11:17;99424.13;;;8.90;100.00
23574;BME280;11965;53.640;10.050;2023-04-01T03:13:46;99426.03;;;8.90;100.00
23574;BME280;11965;53.640;10.050;2023-04-01T03:16:14;99428.38;;;8.93;100.00
23574;BME280;11965;53.640;10.050;2023-04-01T03:18:41;99428.38;;;8.93;100.00
23574;BME280;11965;53.640;10.050;2023-04-01T03:21:14;99432.19;;;8.92;100.00
23574;BME280;11965;53.640;10.050;2023-04-01T03:23:41;99430.69;;;8.96;100.00
23574;BME280;11965;53.640;10.050;2023-04-01T03:26:08;99435.38;;;8.95;100.00
23574;BME280;11965;53.640;10.050;2023-04-01T03:28:35;99424.75;;;8.92;100.00
23574;BME280;11965;53.640;10.050;2023-04-01T03:31:04;99438.34;;;8.94;100.00
23574;BME280;11965;53.640;10.050;2023-04-01T03:33:37;99426.66;;;8.92;100.00
23574;BME280;11965;53.640;10.050;2023-04-01T03:36:05;99432.38;;;8.97;100.00
23574;BME280;11965;53.640;10.050;2023-04-01T03:38:33;99435.59;;;8.94;100.00
23574;BME280;11965;53.640;10.050;2023-04-01T03:40:59;99437.28;;;8.95;100.00
23574;BME280;11965;53.640;10.050;2023-04-01T03:43:27;99438.97;;;8.96;100.00
23574;BME280;11965;53.640;10.050;2023-04-01T03:45:54;99435.81;;;8.92;100.00
23574;BME280;11965;53.640;10.050;2023-04-01T03:48:25;99436.03;;;8.91;100.00
23574;BME280;11965;53.640;10.050;2023-04-01T03:50:52;99445.78;;;8.93;100.00
23574;BME280;11965;53.640;10.050;2023-04-01T03:53:19;99446.88;;;8.92;100.00
23574;BME280;11965;53.640;10.050;2023-04-01T03:55:47;99448.75;;;8.92;100.00
23574;BME280;11965;53.640;10.050;2023-04-01T03:58:14;99454.28;;;8.92;100.00
23574;BME280;11965;53.640;10.050;2023-04-01T04:00:41;99449.84;;;8.91;100.00
23574;BME280;11965;53.640;10.050;2023-04-01T04:03:09;99455.56;;;8.89;100.00
23574;BME280;11965;53.640;10.050;2023-04-01T04:05:46;99453.22;;;8.93;100.00
23574;BME280;11965;53.640;10.050;2023-04-01T04:08:14;99448.16;;;8.90;100.00
23574;BME280;11965;53.640;10.050;2023-04-01T04:10:41;99461.72;;;8.91;100.00
23574;BME280;11965;53.640;10.050;2023-04-01T04:13:08;99453.69;;;8.90;100.00
23574;BME280;11965;53.640;10.050;2023-04-01T04:15:40;99454.72;;;8.89;100.00
23574;BME280;11965;53.640;10.050;2023-04-01T04:18:06;99462.56;;;8.92;100.00
23574;BME280;11965;53.640;10.050;2023-04-01T04:20:33;99461.72;;;8.91;100.00
23574;BME280;11965;53.640;10.050;2023-04-01T04:23:02;99458.13;;;8.91;100.00
23574;BME280;11965;53.640;10.050;2023-04-01T04:25:31;99469.81;;;8.93;100.00
23574;BME280;11965;53.640;10.050;2023-04-01T04:27:58;99467.69;;;8.95;100.00
23574;BME280;11965;53.640;10.050;2023-04-01T04:30:24;99475.34;;;8.93;100.00
23574;BME280;11965;53.640;10.050;2023-04-01T04:32:51;99471.50;;;8.94;100.00
23574;BME280;11965;53.640;10.050;2023-04-01T04:35:18;99474.06;;;8.95;100.00
23574;BME280;11965;53.640;10.050;2023-04-01T04:37:45;99478.31;;;8.98;100.00
23574;BME280;11965;53.640;10.050;2023-04-01T04:40:14;99485.13;;;8.95;100.00
23574;BME280;11965;53.640;10.050;2023-04-01T04:42:41;99491.91;;;8.93;100.00
23574;BME280;11965;53.640;10.050;2023-04-01T04:45:11;99495.72;;;8.92;100.00
23574;BME280;11965;53.640;10.050;2023-04-01T04:47:43;99495.53;;;8.93;100.00
23574;BME280;11965;53.640;10.050;2023-04-01T04:50:11;99498.88;;;9.02;100.00
23574;BME280;11965;53.640;10.050;2023-04-01T04:52:39;99504.50;;;8.75;100.00
23574;BME280;11965;53.640;10.050;2023-04-01T04:55:07;99510.69;;;8.31;100.00
23574;BME280;11965;53.640;10.050;2023-04-01T04:57:36;99515.34;;;8.10;100.00
23574;BME280;11965;53.640;10.050;2023-04-01T05:00:03;99518.94;;;7.97;100.00
23574;BME280;11965;53.640;10.050;2023-04-01T05:03:03;99523.16;;;7.87;100.00
23574;BME280;11965;53.640;10.050;2023-04-01T05:05:30;99529.13;;;7.90;100.00
23574;BME280;11965;53.640;10.050;2023-04-01T05:07:58;99539.94;;;7.85;100.00
23574;BME280;11965;53.640;10.050;2023-04-01T05:10:24;99532.06;;;7.75;100.00
23574;BME280;11965;53.640;10.050;2023-04-01T05:12:53;99544.13;;;7.68;100.00
23574;BME280;11965;53.640;10.050;2023-04-01T05:15:22;99542.41;;;7.60;100.00
23574;BME280;11965;53.640;10.050;2023-04-01T05:17:49;99532.66;;;7.58;100.00
23574;BME280;11965;53.640;10.050;2023-04-01T05:20:17;99548.97;;;7.52;100.00
23574;BME280;11965;53.640;10.050;2023-04-01T05:22:44;99541.75;;;7.45;100.00
23574;BME280;11965;53.640;10.050;2023-04-01T05:25:11;99548.50;;;7.42;100.00
23574;BME280;11965;53.640;10.050;2023-04-01T05:27:38;99555.47;;;7.32;100.00
23574;BME280;11965;53.640;10.050;2023-04-01T05:30:07;99554.81;;;7.29;100.00
23574;BME280;11965;53.640;10.050;2023-04-01T05:32:42;99558.59;;;7.22;100.00
23574;BME280;11965;53.640;10.050;2023-04-01T05:35:10;99563.63;;;7.12;100.00
23574;BME280;11965;53.640;10.050;2023-04-01T05:37:37;99567.25;;;7.19;100.00
23574;BME280;11965;53.640;10.050;2023-04-01T05:40:05;99570.25;;;7.24;100.00
23574;BME280;11965;53.640;10.050;2023-04-01T05:42:33;99580.59;;;7.15;100.00
23574;BME280;11965;53.640;10.050;2023-04-01T05:45:00;99575.69;;;7.11;100.00
23574;BME280;11965;53.640;10.050;2023-04-01T05:47:51;99585.22;;;7.08;100.00
23574;BME280;11965;53.640;10.050;2023-04-01T05:50:18;99587.13;;;7.07;100.00
23574;BME280;11965;53.640;10.050;2023-04-01T05:52:45;99589.66;;;7.02;100.00
23574;BME280;11965;53.640;10.050;2023-04-01T05:55:12;99595.34;;;7.01;100.00
23574;BME280;11965;53.640;10.050;2023-04-01T05:57:40;99597.91;;;7.02;100.00
23574;BME280;11965;53.640;10.050;2023-04-01T06:00:07;99604.06;;;7.04;100.00
23574;BME280;11965;53.640;10.050;2023-04-01T06:02:40;99605.41;;;6.87;100.00
23574;BME280;11965;53.640;10.050;2023-04-01T06:05:17;99616.25;;;6.89;100.00
23574;BME280;11965;53.640;10.050;2023-04-01T06:07:45;99619.59;;;6.84;100.00
23574;BME280;11965;53.640;10.050;2023-04-01T06:10:15;99622.00;;;6.66;100.00
23574;BME280;11965;53.640;10.050;2023-04-01T06:12:56;99625.66;;;6.73;100.00
23574;BME280;11965;53.640;10.050;2023-04-01T06:15:36;99628.31;;;6.59;100.00
23574;BME280;11965;53.640;10.050;2023-04-01T06:18:45;99623.88;;;6.58;100.00
23574;BME280;11965;53.640;10.050;2023-04-01T06:24:38;99638.47;;;6.59;100.00
23574;BME280;11965;53.640;10.050;2023-04-01T06:27:19;99639.91;;;6.55;100.00
23574;BME280;11965;53.640;10.050;2023-04-01T06:30:02;99643.84;;;6.46;100.00
23574;BME280;11965;53.640;10.050;2023-04-01T06:33:03;99668.50;;;6.54;100.00
23574;BME280;11965;53.640;10.050;2023-04-01T06:35:59;99657.34;;;6.40;100.00
23574;BME280;11965;53.640;10.050;2023-04-01T06:38:52;99660.94;;;6.41;100.00
23574;BME280;11965;53.640;10.050;2023-04-01T06:41:44;99668.81;;;6.44;100.00
23574;BME280;11965;53.640;10.050;2023-04-01T06:44:23;99672.09;;;6.33;100.00
23574;BME280;11965;53.640;10.050;2023-04-01T06:47:27;99660.25;;;6.32;100.00
23574;BME280;11965;53.640;10.050;2023-04-01T06:50:24;99681.81;;;6.29;100.00
23574;BME280;11965;53.640;10.050;2023-04-01T06:53:20;99680.47;;;6.25;100.00
23574;BME280;11965;53.640;10.050;2023-04-01T06:55:59;99686.03;;;6.31;100.00
23574;BME280;11965;53.640;10.050;2023-04-01T06:58:44;99686.66;;;6.27;100.00
23574;BME280;11965;53.640;10.050;2023-04-01T07:01:19;99694.06;;;6.26;100.00
23574;BME280;11965;53.640;10.050;2023-04-01T07:03:53;99697.56;;;6.20;100.00
23574;BME280;11965;53.640;10.050;2023-04-01T07:06:28;99698.16;;;6.15;100.00
23574;BME280;11965;53.640;10.050;2023-04-01T07:09:02;99711.13;;;6.22;100.00
23574;BME280;11965;53.640;10.050;2023-04-01T07:11:55;99709.91;;;6.09;100.00
23574;BME280;11965;53.640;10.050;2023-04-01T07:14:51;99720.28;;;6.07;100.00
23574;BME280;11965;53.640;10.050;2023-04-01T07:17:23;99722.38;;;6.05;100.00
23574;BME280;11965;53.640;10.050;2023-04-01T07:19:59;99725.94;;;5.91;100.00
23574;BME280;11965;53.640;10.050;2023-04-01T07:22:33;99725.94;;;5.91;100.00
23574;BME280;11965;53.640;10.050;2023-04-01T07:25:21;99733.88;;;5.94;100.00
23574;BME280;11965;53.640;10.050;2023-04-01T07:28:04;99744.88;;;5.94;100.00
23574;BME280;11965;53.640;10.050;2023-04-01T07:30:50;99742.19;;;5.86;100.00
23574;BME280;11965;53.640;10.050;2023-04-01T07:33:27;99747.31;;;5.89;100.00
23574;BME280;11965;53.640;10.050;2023-04-01T07:36:03;99747.78;;;5.92;100.00
23574;BME280;11965;53.640;10.050;2023-04-01T07:38:42;99749.00;;;5.90;100.00
23574;BME280;11965;53.640;10.050;2023-04-01T07:41:32;99754.91;;;5.87;100.00
23574;BME280;11965;53.640;10.050;2023-04-01T07:44:12;99776.91;;;5.87;100.00
23574;BME280;11965;53.640;10.050;2023-04-01T07:47:04;99771.09;;;5.82;100.00
23574;BME280;11965;53.640;10.050;2023-04-01T07:49:45;99777.56;;;5.89;100.00
23574;BME280;11965;53.640;10.050;2023-04-01T07:52:23;99774.03;;;5.80;100.00
23574;BME280;11965;53.640;10.050;2023-04-01T07:55:08;99787.69;;;5.88;100.00
23574;BME280;11965;53.640;10.050;2023-04-01T07:57:47;99796.78;;;5.74;100.00
23574;BME280;11965;53.640;10.050;2023-04-01T08:00:20;99792.72;;;5.85;100.00
23574;BME280;11965;53.640;10.050;2023-04-01T08:03:23;99798.97;;;5.64;100.00
23574;BME280;11965;53.640;10.050;2023-04-01T08:06:00;99796.63;;;5.75;100.00
23574;BME280;11965;53.640;10.050;2023-04-01T08:08:59;99809.69;;;5.88;100.00
23574;BME280;11965;53.640;10.050;2023-04-01T08:12:00;99817.50;;;6.00;100.00
23574;BME280;11965;53.640;10.050;2023-04-01T08:14:55;99822.41;;;6.04;100.00
23574;BME280;11965;53.640;10.050;2023-04-01T08:17:54;99822.91;;;6.08;100.00
23574;BME280;11965;53.640;10.050;2023-04-01T08:20:34;99831.72;;;6.03;100.00
23574;BME280;11965;53.640;10.050;2023-04-01T08:23:11;99836.56;;;6.01;100.00
23574;BME280;11965;53.640;10.050;2023-04-01T08:25:47;99831.72;;;6.03;100.00
23574;BME280;11965;53.640;10.050;2023-04-01T08:28:21;99843.78;;;6.02;100.00
23574;BME280;11965;53.640;10.050;2023-04-01T08:30:56;99845.88;;;6.00;100.00
23574;BME280;11965;53.640;10.050;2023-04-01T08:33:27;99856.94;;;6.07;100.00
23574;BME280;11965;53.640;10.050;2023-04-01T08:36:09;99854.00;;;5.93;100.00
23574;BME280;11965;53.640;10.050;2023-04-01T08:38:42;99855.88;;;5.93;100.00
23574;BME280;11965;53.640;10.050;2023-04-01T08:41:33;99858.56;;;6.01;100.00
23574;BME280;11965;53.640;10.050;2023-04-01T08:44:38;99866.94;;;6.08;100.00
23574;BME280;11965;53.640;10.050;2023-04-01T08:47:29;99870.44;;;6.16;100.00
23574;BME280;11965;53.640;10.050;2023-04-01T08:50:26;99870.13;;;6.11;100.00
23574;BME280;11965;53.640;10.050;2023-04-01T08:53:26;99871.66;;;6.14;100.00
23574;BME280;11965;53.640;10.050;2023-04-01T08:56:08;99884.00;;;6.03;100.00
23574;BME280;11965;53.640;10.050;2023-04-01T08:58:58;99879.84;;;6.07;100.00
23574;BME280;11965;53.640;10.050;2023-04-01T09:01:53;99886.94;;;6.16;100.00
23574;BME280;11965;53.640;10.050;2023-04-01T09:05:18;99883.03;;;5.96;100.00
23574;BME280;11965;53.640;10.050;2023-04-01T09:08:01;99890.44;;;5.95;100.00
23574;BME280;11965;53.640;10.050;2023-04-01T09:14:26;99890.72;;;6.01;100.00
23574;BME280;11965;53.640;10.050;2023-04-01T09:20:47;99905.91;;;6.11;100.00
23574;BME280;11965;53.640;10.050;2023-04-01T09:23:38;99915.47;;;6.01;100.00
23574;BME280;11965;53.640;10.050;2023-04-01T09:26:37;99911.44;;;5.88;100.00
23574;BME280;11965;53.640;10.050;2023-04-01T09:29:26;99915.94;;;6.04;100.00
23574;BME280;11965;53.640;10.050;2023-04-01T09:32:12;99919.84;;;6.10;100.00
23574;BME280;11965;53.640;10.050;2023-04-01T09:34:55;99925.25;;;6.03;100.00
23574;BME280;11965;53.640;10.050;2023-04-01T09:37:35;99940.59;;;5.97;100.00
23574;BME280;11965;53.640;10.050;2023-04-01T09:40:17;99945.56;;;6.02;100.00
23574;BME280;11965;53.640;10.050;2023-04-01T09:43:04;99942.00;;;5.93;100.00
23574;BME280;11965;53.640;10.050;2023-04-01T09:45:47;99952.59;;;6.05;100.00
23574;BME280;11965;53.640;10.050;2023-04-01T09:48:39;99959.94;;;6.04;100.00
23574;BME280;11965;53.640;10.050;2023-04-01T09:51:26;99957.63;;;5.93;100.00
23574;BME280;11965;53.640;10.050;2023-04-01T09:54:13;99961.75;;;5.97;100.00
23574;BME280;11965;53.640;10.050;2023-04-01T09:57:28;99962.53;;;6.20;100.00
23574;BME280;11965;53.640;10.050;2023-04-01T10:00:39;99966.34;;;6.05;100.00
23574;BME280;11965;53.640;10.050;2023-04-01T10:07:06;99980.09;;;6.19;100.00
23574;BME280;11965;53.640;10.050;2023-04-01T10:13:30;99977.44;;;6.11;100.00
23574;BME280;11965;53.640;10.050;2023-04-01T10:16:30;99981.44;;;6.24;100.00
23574;BME280;11965;53.640;10.050;2023-04-01T10:19:27;99983.41;;;6.15;100.00
23574;BME280;11965;53.640;10.050;2023-04-01T10:22:21;99989.31;;;6.27;100.00
23574;BME280;11965;53.640;10.050;2023-04-01T10:25:18;100002.19;;;6.11;100.00
23574;BME280;11965;53.640;10.050;2023-04-01T10:28:14;99997.66;;;6.18;100.00
23574;BME280;11965;53.640;10.050;2023-04-01T10:31:44;100000.78;;;6.15;100.00
23574;BME280;11965;53.640;10.050;2023-04-01T10:40:40;100008.38;;;6.28;100.00
23574;BME280;11965;53.640;10.050;2023-04-01T10:44:11;100012.38;;;6.55;100.00
23574;BME280;11965;53.640;10.050;2023-04-01T10:50:04;100019.97;;;6.38;100.00
23574;BME280;11965;53.640;10.050;2023-04-01T10:52:58;100034.28;;;6.34;100.00
23574;BME280;11965;53.640;10.050;2023-04-01T10:56:29;100034.28;;;6.34;100.00
23574;BME280;11965;53.640;10.050;2023-04-01T10:59:35;100036.50;;;6.38;100.00
23574;BME280;11965;53.640;10.050;2023-04-01T11:03:21;100033.81;;;6.30;100.00
23574;BME280;11965;53.640;10.050;2023-04-01T11:06:56;100048.56;;;6.37;100.00
23574;BME280;11965;53.640;10.050;2023-04-01T11:10:04;100046.88;;;6.13;100.00
23574;BME280;11965;53.640;10.050;2023-04-01T11:13:15;100057.59;;;6.23;100.00
23574;BME280;11965;53.640;10.050;2023-04-01T11:16:14;100059.34;;;6.24;100.00
23574;BME280;11965;53.640;10.050;2023-04-01T11:19:17;100061.88;;;6.26;100.00
23574;BME280;11965;53.640;10.050;2023-04-01T11:22:05;100070.44;;;6.31;100.00
23574;BME280;11965;53.640;10.050;2023-04-01T11:31:35;100080.50;;;6.61;100.00
23574;BME280;11965;53.640;10.050;2023-04-01T11:34:20;100085.41;;;6.51;100.00
23574;BME280;11965;53.640;10.050;2023-04-01T11:37:06;100087.19;;;6.44;100.00
23574;BME280;11965;53.640;10.050;2023-04-01T11:39:59;100095.91;;;6.33;100.00
23574;BME280;11965;53.640;10.050;2023-04-01T11:42:57;100105.41;;;6.07;100.00
23574;BME280;11965;53.640;10.050;2023-04-01T11:46:11;100099.66;;;5.94;100.00
23574;BME280;11965;53.640;10.050;2023-04-01T11:48:51;100113.16;;;6.04;100.00
23574;BME280;11965;53.640;10.050;2023-04-01T11:51:53;100125.63;;;6.14;100.00
23574;BME280;11965;53.640;10.050;2023-04-01T11:54:44;100124.16;;;6.04;100.00
23574;BME280;11965;53.640;10.050;2023-04-01T11:57:35;100130.41;;;5.89;100.00
23574;BME280;11965;53.640;10.050;2023-04-01T12:00:25;100133.59;;;5.78;100.00
23574;BME280;11965;53.640;10.050;2023-04-01T12:03:17;100132.69;;;5.78;100.00
23574;BME280;11965;53.640;10.050;2023-04-01T12:05:54;100135.13;;;5.81;100.00
23574;BME280;11965;53.640;10.050;2023-04-01T12:08:36;100132.47;;;5.95;100.00
23574;BME280;11965;53.640;10.050;2023-04-01T12:11:17;100147.47;;;5.85;100.00
23574;BME280;11965;53.640;10.050;2023-04-01T12:13:55;100145.75;;;5.84;100.00
23574;BME280;11965;53.640;10.050;2023-04-01T12:16:41;100149.03;;;5.79;100.00
23574;BME280;11965;53.640;10.050;2023-04-01T12:19:18;100159.06;;;5.64;100.00
23574;BME280;11965;53.640;10.050;2023-04-01T12:22:00;100154.16;;;5.59;100.00
23574;BME280;11965;53.640;10.050;2023-04-01T12:24:45;100163.75;;;5.55;100.00
23574;BME280;11965;53.640;10.050;2023-04-01T12:27:34;100168.22;;;5.64;100.00
23574;BME280;11965;53.640;10.050;2023-04-01T12:30:25;100182.59;;;5.66;100.00
23574;BME280;11965;53.640;10.050;2023-04-01T12:33:15;100179.69;;;5.68;100.00
23574;BME280;11965;53.640;10.050;2023-04-01T12:36:00;100190.69;;;5.68;100.00
23574;BME280;11965;53.640;10.050;2023-04-01T12:38:47;100188.78;;;5.68;100.00
23574;BME280;11965;53.640;10.050;2023-04-01T12:41:29;100196.91;;;5.62;100.00
23574;BME280;11965;53.640;10.050;2023-04-01T12:44:13;100186.53;;;5.72;100.00
23574;BME280;11965;53.640;10.050;2023-04-01T12:47:16;100202.53;;;5.68;100.00
23574;BME280;11965;53.640;10.050;2023-04-01T12:50:13;100205.16;;;5.62;100.00
23574;BME280;11965;53.640;10.050;2023-04-01T12:52:59;100218.38;;;5.58;100.00
23574;BME280;11965;53.640;10.050;2023-04-01T12:55:38;100224.59;;;5.52;100.00
23574;BME280;11965;53.640;10.050;2023-04-01T12:58:57;100222.03;;;5.42;100.00
23574;BME280;11965;53.640;10.050;2023-04-01T13:01:45;100229.28;;;5.35;100.00
23574;BME280;11965;53.640;10.050;2023-04-01T13:04:45;100230.50;;;5.32;100.00
23574;BME280;11965;53.640;10.050;2023-04-01T13:07:46;100232.56;;;5.30;100.00
23574;BME280;11965;53.640;10.050;2023-04-01T13:10:31;100239.75;;;5.40;100.00
23574;BME280;11965;53.640;10.050;2023-04-01T13:16:06;100250.72;;;5.40;100.00
23574;BME280;11965;53.640;10.050;2023-04-01T13:18:51;100261.41;;;5.35;100.00
23574;BME280;11965;53.640;10.050;2023-04-01T13:21:30;100267.75;;;5.43;100.00
23574;BME280;11965;53.640;10.050;2023-04-01T13:24:22;100272.75;;;5.31;100.00
23574;BME280;11965;53.640;10.050;2023-04-01T13:27:00;100271.00;;;5.39;100.00
23574;BME280;11965;53.640;10.050;2023-04-01T13:29:34;100281.19;;;5.14;100.00
23574;BME280;11965;53.640;10.050;2023-04-01T13:32:23;100270.72;;;5.17;100.00
23574;BME280;11965;53.640;10.050;2023-04-01T13:35:13;100281.34;;;5.20;100.00
23574;BME280;11965;53.640;10.050;2023-04-01T13:37:54;100286.34;;;5.25;100.00
23574;BME280;11965;53.640;10.050;2023-04-01T13:40:34;100299.38;;;5.31;100.00
23574;BME280;11965;53.640;10.050;2023-04-01T13:43:14;100301.41;;;5.37;100.00
23574;BME280;11965;53.640;10.050;2023-04-01T13:46:16;100309.34;;;5.32;100.00
23574;BME280;11965;53.640;10.050;2023-04-01T13:49:11;100297.84;;;5.20;100.00
23574;BME280;11965;53.640;10.050;2023-04-01T13:52:04;100315.34;;;5.27;100.00
23574;BME280;11965;53.640;10.050;2023-04-01T13:54:57;100321.72;;;5.20;100.00
23574;BME280;11965;53.640;10.050;2023-04-01T13:57:48;100312.97;;;5.16;100.00
23574;BME280;11965;53.640;10.050;2023-04-01T14:00:35;100318.97;;;5.03;100.00
23574;BME280;11965;53.640;10.050;2023-04-01T14:03:30;100328.25;;;5.02;100.00
23574;BME280;11965;53.640;10.050;2023-04-01T14:06:19;100344.53;;;4.96;100.00
23574;BME280;11965;53.640;10.050;2023-04-01T14:09:27;100340.94;;;4.95;100.00
23574;BME280;11965;53.640;10.050;2023-04-01T14:12:04;100339.56;;;4.99;100.00
23574;BME280;11965;53.640;10.050;2023-04-01T14:14:53;100346.94;;;4.99;100.00
23574;BME280;11965;53.640;10.050;2023-04-01T14:17:42;100349.69;;;4.99;100.00
23574;BME280;11965;53.640;10.050;2023-04-01T14:20:27;100356.72;;;5.01;100.00
23574;BME280;11965;53.640;10.050;2023-04-01T14:23:23;100359.66;;;5.00;100.00
23574;BME280;11965;53.640;10.050;2023-04-01T14:26:30;100366.50;;;5.04;100.00
23574;BME280;11965;53.640;10.050;2023-04-01T14:29:16;100370.97;;;5.05;100.00
23574;BME280;11965;53.640;10.050;2023-04-01T14:32:02;100366.69;;;5.02;100.00
23574;BME280;11965;53.640;10.050;2023-04-01T14:34:50;100375.09;;;5.01;100.00
23574;BME280;11965;53.640;10.050;2023-04-01T14:37:42;100375.25;;;5.07;100.00